LGL699 ELLX-LEMH
Flight info
| Callsign | LGL699 |
|---|---|
| Flight time | 1h 49m |
| Altitude | 37000 |
| Route | GTQ3P GTQ A242 POGOL DCT LASAT DCT MOROK DCT GILIR DCT GEVEA DCT INCUS DCT BALSI DCT RETNO DCT TUPOX DCT MTG DCT DIVKO DCT VATIR DCT PIVUS DCT BODEQ DCT VERSO L16 SARGO SARGO5B |
| Aircraft | B738/M-SDE2E3FGHIJ1RWXY/LB1V1 |
Departure
| Time | 2026-05-07 13:05 |
|---|---|
| Airport | Luxembourg-Findel International Airport (ELLX) |
Arrival
| Time | 2026-05-07 14:55 |
|---|---|
| Airport | Menorca Airport (LEMH) |
| Time | Latitude | Longitude | Altitude | Speed | Heading |
|---|---|---|---|---|---|
| 2026-05-07 12:33 | 49.63349 | 6.21689 | 1236 ft | 0 kts | 329° |
| 2026-05-07 12:54 | 49.63346 | 6.21692 | 1235 ft | 2 kts | 329° |
| 2026-05-07 12:55 | 49.63333 | 6.21704 | 1235 ft | 2 kts | 329° |
| 2026-05-07 12:55 | 49.63322 | 6.21714 | 1234 ft | 0 kts | 329° |
| 2026-05-07 12:55 | 49.63312 | 6.21725 | 1233 ft | 2 kts | 301° |
| 2026-05-07 12:55 | 49.63308 | 6.21746 | 1233 ft | 2 kts | 265° |
| 2026-05-07 12:56 | 49.63310 | 6.21761 | 1233 ft | 0 kts | 242° |
| 2026-05-07 12:56 | 49.63314 | 6.21771 | 1234 ft | 0 kts | 239° |
| 2026-05-07 12:58 | 49.63300 | 6.21732 | 1232 ft | 8 kts | 240° |
| 2026-05-07 12:59 | 49.63276 | 6.21643 | 1233 ft | 8 kts | 274° |
| 2026-05-07 12:59 | 49.63262 | 6.21551 | 1233 ft | 8 kts | 232° |
| 2026-05-07 12:59 | 49.63205 | 6.21551 | 1233 ft | 11 kts | 151° |
| 2026-05-07 12:59 | 49.63121 | 6.21624 | 1228 ft | 16 kts | 150° |
| 2026-05-07 13:00 | 49.63046 | 6.21549 | 1227 ft | 14 kts | 245° |
| 2026-05-07 13:00 | 49.63003 | 6.21409 | 1231 ft | 14 kts | 244° |
| 2026-05-07 13:00 | 49.62951 | 6.21244 | 1232 ft | 21 kts | 245° |
| 2026-05-07 13:00 | 49.62884 | 6.21025 | 1235 ft | 23 kts | 245° |
| 2026-05-07 13:01 | 49.62810 | 6.20789 | 1235 ft | 25 kts | 238° |
| 2026-05-07 13:01 | 49.62681 | 6.20600 | 1231 ft | 26 kts | 220° |
| 2026-05-07 13:01 | 49.62565 | 6.20407 | 1225 ft | 21 kts | 228° |
| 2026-05-07 13:01 | 49.62473 | 6.20218 | 1219 ft | 21 kts | 239° |
| 2026-05-07 13:02 | 49.62402 | 6.20027 | 1210 ft | 17 kts | 239° |
| 2026-05-07 13:02 | 49.62340 | 6.19861 | 1201 ft | 19 kts | 240° |
| 2026-05-07 13:02 | 49.62277 | 6.19691 | 1190 ft | 19 kts | 240° |
| 2026-05-07 13:02 | 49.62204 | 6.19494 | 1182 ft | 23 kts | 240° |
| 2026-05-07 13:03 | 49.62117 | 6.19259 | 1170 ft | 26 kts | 240° |
| 2026-05-07 13:03 | 49.62033 | 6.19036 | 1160 ft | 21 kts | 239° |
| 2026-05-07 13:03 | 49.61968 | 6.18862 | 1154 ft | 18 kts | 238° |
| 2026-05-07 13:03 | 49.61872 | 6.18724 | 1150 ft | 18 kts | 215° |
| 2026-05-07 13:04 | 49.61795 | 6.18732 | 1148 ft | 9 kts | 146° |
| 2026-05-07 13:04 | 49.61770 | 6.18803 | 1151 ft | 5 kts | 73° |
| 2026-05-07 13:04 | 49.61784 | 6.18839 | 1152 ft | 4 kts | 58° |
| 2026-05-07 13:04 | 49.61877 | 6.19087 | 1163 ft | 58 kts | 59° |
| 2026-05-07 13:05 | 49.62178 | 6.19897 | 1200 ft | 115 kts | 60° |
| 2026-05-07 13:05 | 49.62663 | 6.21204 | 1227 ft | 163 kts | 60° |
| 2026-05-07 13:05 | 49.63237 | 6.22717 | 1767 ft | 164 kts | 57° |
| 2026-05-07 13:05 | 49.63844 | 6.24220 | 2394 ft | 167 kts | 57° |
| 2026-05-07 13:06 | 49.64434 | 6.25736 | 2996 ft | 169 kts | 62° |
| 2026-05-07 13:06 | 49.64625 | 6.27503 | 3488 ft | 177 kts | 104° |
| 2026-05-07 13:06 | 49.63946 | 6.29061 | 4085 ft | 179 kts | 140° |
| 2026-05-07 13:06 | 49.62983 | 6.30234 | 4702 ft | 179 kts | 140° |
| 2026-05-07 13:07 | 49.61977 | 6.31481 | 5088 ft | 192 kts | 140° |
| 2026-05-07 13:07 | 49.60915 | 6.32828 | 5421 ft | 211 kts | 139° |
| 2026-05-07 13:07 | 49.59745 | 6.34353 | 5839 ft | 228 kts | 138° |
| 2026-05-07 13:07 | 49.58531 | 6.36002 | 6373 ft | 240 kts | 137° |
| 2026-05-07 13:08 | 49.57247 | 6.37753 | 6891 ft | 252 kts | 137° |
| 2026-05-07 13:08 | 49.55881 | 6.39543 | 7313 ft | 269 kts | 143° |
| 2026-05-07 13:08 | 49.54242 | 6.41023 | 7885 ft | 278 kts | 154° |
| 2026-05-07 13:08 | 49.52476 | 6.42221 | 8567 ft | 283 kts | 157° |
| 2026-05-07 13:09 | 49.50638 | 6.43400 | 9305 ft | 287 kts | 158° |
| 2026-05-07 13:09 | 49.48815 | 6.44569 | 10033 ft | 290 kts | 158° |
| 2026-05-07 13:09 | 49.46942 | 6.45813 | 10572 ft | 300 kts | 156° |
| 2026-05-07 13:09 | 49.44988 | 6.47171 | 10962 ft | 317 kts | 156° |
| 2026-05-07 13:10 | 49.42932 | 6.48615 | 11354 ft | 332 kts | 156° |
| 2026-05-07 13:10 | 49.40807 | 6.50099 | 11725 ft | 348 kts | 156° |
| 2026-05-07 13:10 | 49.38551 | 6.51668 | 12238 ft | 359 kts | 156° |
| 2026-05-07 13:10 | 49.36269 | 6.53251 | 12909 ft | 365 kts | 156° |
| 2026-05-07 13:11 | 49.33953 | 6.54853 | 13619 ft | 370 kts | 156° |
| 2026-05-07 13:11 | 49.31630 | 6.56456 | 14368 ft | 373 kts | 156° |
| 2026-05-07 13:11 | 49.29245 | 6.58100 | 15129 ft | 377 kts | 156° |
| 2026-05-07 13:11 | 49.26844 | 6.59751 | 15861 ft | 381 kts | 156° |
| 2026-05-07 13:12 | 49.24435 | 6.61370 | 16601 ft | 384 kts | 158° |
| 2026-05-07 13:12 | 49.21910 | 6.62795 | 17334 ft | 387 kts | 162° |
| 2026-05-07 13:12 | 49.19355 | 6.63945 | 18019 ft | 391 kts | 166° |
| 2026-05-07 13:12 | 49.16700 | 6.64984 | 18703 ft | 395 kts | 167° |
| 2026-05-07 13:13 | 49.14017 | 6.65983 | 19370 ft | 399 kts | 168° |
| 2026-05-07 13:13 | 49.11279 | 6.66986 | 20026 ft | 403 kts | 168° |
| 2026-05-07 13:13 | 49.08546 | 6.67985 | 20664 ft | 407 kts | 168° |
| 2026-05-07 13:13 | 49.05800 | 6.68989 | 21283 ft | 411 kts | 168° |
| 2026-05-07 13:14 | 49.03028 | 6.69994 | 21893 ft | 414 kts | 169° |
| 2026-05-07 13:14 | 49.00222 | 6.70869 | 22529 ft | 416 kts | 172° |
| 2026-05-07 13:14 | 48.97312 | 6.71408 | 23120 ft | 419 kts | 178° |
| 2026-05-07 13:14 | 48.94413 | 6.71586 | 23697 ft | 421 kts | 181° |
| 2026-05-07 13:15 | 48.91498 | 6.71562 | 24264 ft | 424 kts | 183° |
| 2026-05-07 13:15 | 48.88550 | 6.71443 | 24810 ft | 427 kts | 184° |
| 2026-05-07 13:15 | 48.85582 | 6.71286 | 25354 ft | 431 kts | 184° |
| 2026-05-07 13:15 | 48.82586 | 6.71122 | 25891 ft | 434 kts | 184° |
| 2026-05-07 13:16 | 48.79519 | 6.70960 | 26391 ft | 437 kts | 184° |
| 2026-05-07 13:16 | 48.76487 | 6.70808 | 26874 ft | 441 kts | 184° |
| 2026-05-07 13:16 | 48.73396 | 6.70663 | 27360 ft | 444 kts | 184° |
| 2026-05-07 13:16 | 48.70304 | 6.70525 | 27825 ft | 448 kts | 184° |
| 2026-05-07 13:17 | 48.67187 | 6.70393 | 28284 ft | 451 kts | 183° |
| 2026-05-07 13:17 | 48.64061 | 6.70264 | 28742 ft | 454 kts | 183° |
| 2026-05-07 13:17 | 48.60889 | 6.70137 | 29173 ft | 457 kts | 183° |
| 2026-05-07 13:17 | 48.57697 | 6.70012 | 29624 ft | 460 kts | 183° |
| 2026-05-07 13:18 | 48.54517 | 6.69889 | 30111 ft | 461 kts | 183° |
| 2026-05-07 13:18 | 48.51313 | 6.69768 | 30821 ft | 457 kts | 183° |
| 2026-05-07 13:18 | 48.48162 | 6.69649 | 31305 ft | 457 kts | 183° |
| 2026-05-07 13:18 | 48.44954 | 6.69528 | 31721 ft | 457 kts | 183° |
| 2026-05-07 13:19 | 48.41721 | 6.69405 | 32139 ft | 456 kts | 184° |
| 2026-05-07 13:19 | 48.38543 | 6.69285 | 32544 ft | 456 kts | 184° |
| 2026-05-07 13:19 | 48.35358 | 6.69164 | 32942 ft | 456 kts | 184° |
| 2026-05-07 13:19 | 48.32210 | 6.69043 | 33284 ft | 456 kts | 184° |
| 2026-05-07 13:20 | 48.29004 | 6.68920 | 33609 ft | 455 kts | 184° |
| 2026-05-07 13:20 | 48.25877 | 6.68799 | 33908 ft | 455 kts | 184° |
| 2026-05-07 13:20 | 48.22728 | 6.68678 | 34197 ft | 454 kts | 184° |
| 2026-05-07 13:20 | 48.19573 | 6.68557 | 34473 ft | 454 kts | 184° |
| 2026-05-07 13:21 | 48.16388 | 6.68434 | 34782 ft | 453 kts | 184° |
| 2026-05-07 13:21 | 48.13272 | 6.68313 | 35090 ft | 452 kts | 184° |
| 2026-05-07 13:21 | 48.10152 | 6.68193 | 35385 ft | 451 kts | 184° |
| 2026-05-07 13:21 | 48.06994 | 6.68073 | 35662 ft | 450 kts | 184° |
| 2026-05-07 13:22 | 48.03912 | 6.67957 | 35923 ft | 449 kts | 184° |
| 2026-05-07 13:22 | 48.00806 | 6.67840 | 36215 ft | 447 kts | 184° |
| 2026-05-07 13:22 | 47.97702 | 6.67724 | 36467 ft | 446 kts | 184° |
| 2026-05-07 13:22 | 47.94577 | 6.67606 | 36690 ft | 446 kts | 184° |
| 2026-05-07 13:23 | 47.91450 | 6.67488 | 36910 ft | 446 kts | 184° |
| 2026-05-07 13:23 | 47.88347 | 6.67371 | 36985 ft | 448 kts | 184° |
| 2026-05-07 13:23 | 47.82095 | 6.67135 | 36995 ft | 447 kts | 185° |
| 2026-05-07 13:24 | 47.75911 | 6.66903 | 36995 ft | 447 kts | 185° |
| 2026-05-07 13:24 | 47.69685 | 6.66669 | 36994 ft | 446 kts | 185° |
| 2026-05-07 13:25 | 47.63499 | 6.66437 | 37002 ft | 446 kts | 185° |
| 2026-05-07 13:25 | 47.57320 | 6.66207 | 37003 ft | 446 kts | 185° |
| 2026-05-07 13:26 | 47.51132 | 6.65977 | 37011 ft | 446 kts | 185° |
| 2026-05-07 13:26 | 47.44888 | 6.65621 | 37009 ft | 444 kts | 189° |
| 2026-05-07 13:27 | 47.39006 | 6.63359 | 37006 ft | 436 kts | 209° |
| 2026-05-07 13:27 | 47.33975 | 6.58530 | 37000 ft | 430 kts | 221° |
| 2026-05-07 13:28 | 47.29410 | 6.52961 | 36993 ft | 428 kts | 223° |
| 2026-05-07 13:28 | 47.24893 | 6.47214 | 36993 ft | 428 kts | 224° |
| 2026-05-07 13:29 | 47.20393 | 6.41507 | 36995 ft | 428 kts | 223° |
| 2026-05-07 13:29 | 47.15878 | 6.35832 | 36995 ft | 428 kts | 223° |
| 2026-05-07 13:30 | 47.11314 | 6.30146 | 36993 ft | 429 kts | 222° |
| 2026-05-07 13:30 | 47.06342 | 6.25259 | 36990 ft | 433 kts | 206° |
| 2026-05-07 13:31 | 47.00470 | 6.23028 | 36996 ft | 441 kts | 191° |
| 2026-05-07 13:31 | 46.94375 | 6.22078 | 36990 ft | 441 kts | 188° |
| 2026-05-07 13:32 | 46.88269 | 6.21353 | 36765 ft | 442 kts | 188° |
| 2026-05-07 13:32 | 46.85233 | 6.20995 | 37004 ft | 443 kts | 188° |
| 2026-05-07 13:32 | 46.82144 | 6.20620 | 36832 ft | 440 kts | 188° |
| 2026-05-07 13:33 | 46.79078 | 6.20240 | 36975 ft | 442 kts | 188° |
| 2026-05-07 13:33 | 46.76025 | 6.19851 | 36981 ft | 445 kts | 188° |
| 2026-05-07 13:33 | 46.69869 | 6.19054 | 36979 ft | 443 kts | 188° |
| 2026-05-07 13:34 | 46.60695 | 6.17850 | 36980 ft | 441 kts | 189° |
| 2026-05-07 13:35 | 46.54568 | 6.17044 | 36977 ft | 441 kts | 189° |
| 2026-05-07 13:35 | 46.48487 | 6.16246 | 36975 ft | 440 kts | 189° |
| 2026-05-07 13:36 | 46.42350 | 6.15441 | 36975 ft | 441 kts | 189° |
| 2026-05-07 13:36 | 46.36240 | 6.14641 | 36981 ft | 441 kts | 189° |
| 2026-05-07 13:37 | 46.30105 | 6.13840 | 36985 ft | 441 kts | 189° |
| 2026-05-07 13:37 | 46.24006 | 6.13023 | 36978 ft | 439 kts | 190° |
| 2026-05-07 13:38 | 46.18003 | 6.11815 | 36978 ft | 437 kts | 193° |
| 2026-05-07 13:38 | 46.12012 | 6.10404 | 36972 ft | 436 kts | 193° |
| 2026-05-07 13:39 | 46.06039 | 6.09001 | 36977 ft | 438 kts | 193° |
| 2026-05-07 13:39 | 45.99995 | 6.07618 | 36977 ft | 436 kts | 193° |
| 2026-05-07 13:40 | 45.94002 | 6.06275 | 36979 ft | 436 kts | 193° |
| 2026-05-07 13:40 | 45.88001 | 6.04944 | 36976 ft | 436 kts | 193° |
| 2026-05-07 13:41 | 45.82051 | 6.03632 | 36974 ft | 435 kts | 193° |
| 2026-05-07 13:41 | 45.76063 | 6.02309 | 36979 ft | 434 kts | 193° |
| 2026-05-07 13:42 | 45.70101 | 6.00994 | 36978 ft | 433 kts | 193° |
| 2026-05-07 13:42 | 45.64183 | 5.99691 | 36967 ft | 433 kts | 193° |
| 2026-05-07 13:43 | 45.58224 | 5.98382 | 36966 ft | 433 kts | 193° |
| 2026-05-07 13:43 | 45.52263 | 5.97077 | 36975 ft | 432 kts | 193° |
| 2026-05-07 13:44 | 45.46306 | 5.95749 | 36968 ft | 431 kts | 194° |
| 2026-05-07 13:44 | 45.40442 | 5.94028 | 36991 ft | 428 kts | 197° |
| 2026-05-07 13:45 | 45.34643 | 5.92131 | 37000 ft | 428 kts | 197° |
| 2026-05-07 13:45 | 45.28795 | 5.90234 | 37005 ft | 428 kts | 197° |
| 2026-05-07 13:46 | 45.22987 | 5.88389 | 37001 ft | 427 kts | 197° |
| 2026-05-07 13:46 | 45.17181 | 5.86570 | 37015 ft | 428 kts | 197° |
| 2026-05-07 13:47 | 45.11403 | 5.84776 | 37010 ft | 425 kts | 197° |
| 2026-05-07 13:47 | 45.05594 | 5.82979 | 37008 ft | 427 kts | 197° |
| 2026-05-07 13:48 | 44.99824 | 5.81198 | 37008 ft | 425 kts | 197° |
| 2026-05-07 13:48 | 44.94032 | 5.79416 | 37003 ft | 425 kts | 197° |
| 2026-05-07 13:49 | 44.88247 | 5.77639 | 37001 ft | 424 kts | 197° |
| 2026-05-07 13:49 | 44.82507 | 5.75879 | 36993 ft | 425 kts | 197° |
| 2026-05-07 13:50 | 44.76709 | 5.74106 | 36988 ft | 425 kts | 197° |
| 2026-05-07 13:50 | 44.70967 | 5.72353 | 36983 ft | 423 kts | 197° |
| 2026-05-07 13:51 | 44.65195 | 5.70595 | 36982 ft | 423 kts | 197° |
| 2026-05-07 13:51 | 44.59471 | 5.68857 | 36981 ft | 422 kts | 197° |
| 2026-05-07 13:52 | 44.53711 | 5.67112 | 36978 ft | 422 kts | 197° |
| 2026-05-07 13:52 | 44.47992 | 5.65380 | 36978 ft | 422 kts | 197° |
| 2026-05-07 13:53 | 44.42232 | 5.63639 | 36979 ft | 422 kts | 197° |
| 2026-05-07 13:53 | 44.36559 | 5.61601 | 36973 ft | 419 kts | 202° |
| 2026-05-07 13:54 | 44.31147 | 5.58810 | 36973 ft | 417 kts | 206° |
| 2026-05-07 13:54 | 44.25779 | 5.55800 | 36970 ft | 416 kts | 206° |
| 2026-05-07 13:55 | 44.20413 | 5.52797 | 36975 ft | 416 kts | 206° |
| 2026-05-07 13:55 | 44.15014 | 5.49813 | 36968 ft | 416 kts | 205° |
| 2026-05-07 13:56 | 44.09654 | 5.46880 | 36971 ft | 415 kts | 205° |
| 2026-05-07 13:56 | 44.04275 | 5.43952 | 36965 ft | 415 kts | 205° |
| 2026-05-07 13:57 | 43.98916 | 5.41046 | 36970 ft | 414 kts | 205° |
| 2026-05-07 13:57 | 43.93539 | 5.38134 | 36964 ft | 415 kts | 205° |
| 2026-05-07 13:58 | 43.88178 | 5.35234 | 36958 ft | 414 kts | 205° |
| 2026-05-07 13:58 | 43.82807 | 5.32334 | 36959 ft | 414 kts | 205° |
| 2026-05-07 13:59 | 43.77437 | 5.29442 | 36952 ft | 412 kts | 205° |
| 2026-05-07 13:59 | 43.72123 | 5.26584 | 36947 ft | 413 kts | 205° |
| 2026-05-07 14:00 | 43.66733 | 5.23692 | 36951 ft | 412 kts | 205° |
| 2026-05-07 14:00 | 43.61424 | 5.20850 | 36960 ft | 410 kts | 205° |
| 2026-05-07 14:01 | 43.56097 | 5.18001 | 36963 ft | 410 kts | 205° |
| 2026-05-07 14:01 | 43.50789 | 5.15168 | 36963 ft | 409 kts | 205° |
| 2026-05-07 14:02 | 43.45497 | 5.12350 | 36963 ft | 409 kts | 205° |
| 2026-05-07 14:02 | 43.40211 | 5.09419 | 36966 ft | 408 kts | 208° |
| 2026-05-07 14:03 | 43.35297 | 5.05657 | 36965 ft | 404 kts | 216° |
| 2026-05-07 14:03 | 43.30667 | 5.01367 | 36962 ft | 403 kts | 217° |
| 2026-05-07 14:04 | 43.26089 | 4.96985 | 36956 ft | 401 kts | 217° |
| 2026-05-07 14:04 | 43.21497 | 4.92614 | 36955 ft | 402 kts | 217° |
| 2026-05-07 14:05 | 43.16884 | 4.88261 | 36959 ft | 401 kts | 217° |
| 2026-05-07 14:05 | 43.12305 | 4.83966 | 36955 ft | 399 kts | 217° |
| 2026-05-07 14:06 | 43.07732 | 4.79692 | 36964 ft | 399 kts | 217° |
| 2026-05-07 14:06 | 43.03069 | 4.75561 | 36969 ft | 400 kts | 213° |
| 2026-05-07 14:07 | 42.98218 | 4.71884 | 36961 ft | 401 kts | 211° |
| 2026-05-07 14:07 | 42.93298 | 4.68266 | 36966 ft | 401 kts | 212° |
| 2026-05-07 14:08 | 42.88385 | 4.64614 | 36966 ft | 401 kts | 212° |
| 2026-05-07 14:08 | 42.83521 | 4.60967 | 36965 ft | 400 kts | 212° |
| 2026-05-07 14:09 | 42.78649 | 4.57302 | 36965 ft | 399 kts | 212° |
| 2026-05-07 14:09 | 42.73807 | 4.53662 | 36967 ft | 399 kts | 212° |
| 2026-05-07 14:10 | 42.68951 | 4.50017 | 36964 ft | 398 kts | 212° |
| 2026-05-07 14:10 | 42.64098 | 4.46380 | 36959 ft | 398 kts | 212° |
| 2026-05-07 14:11 | 42.59227 | 4.42736 | 36958 ft | 397 kts | 212° |
| 2026-05-07 14:11 | 42.54384 | 4.39119 | 36954 ft | 397 kts | 212° |
| 2026-05-07 14:12 | 42.49546 | 4.35511 | 36954 ft | 396 kts | 212° |
| 2026-05-07 14:12 | 42.44697 | 4.31900 | 36952 ft | 397 kts | 211° |
| 2026-05-07 14:13 | 42.39856 | 4.28304 | 36953 ft | 396 kts | 211° |
| 2026-05-07 14:13 | 42.35015 | 4.24715 | 36951 ft | 396 kts | 211° |
| 2026-05-07 14:14 | 42.30186 | 4.21140 | 36949 ft | 396 kts | 211° |
| 2026-05-07 14:14 | 42.25348 | 4.17567 | 36947 ft | 396 kts | 211° |
| 2026-05-07 14:15 | 42.20555 | 4.14033 | 36949 ft | 395 kts | 211° |
| 2026-05-07 14:15 | 42.15739 | 4.10487 | 36947 ft | 395 kts | 211° |
| 2026-05-07 14:16 | 42.10930 | 4.06952 | 36948 ft | 393 kts | 211° |
| 2026-05-07 14:16 | 42.06132 | 4.03432 | 36957 ft | 393 kts | 211° |
| 2026-05-07 14:17 | 42.01332 | 3.99915 | 36965 ft | 393 kts | 211° |
| 2026-05-07 14:17 | 41.96563 | 3.96439 | 36965 ft | 392 kts | 210° |
| 2026-05-07 14:18 | 41.91573 | 3.93469 | 36960 ft | 396 kts | 201° |
| 2026-05-07 14:18 | 41.86160 | 3.91759 | 36962 ft | 402 kts | 195° |
| 2026-05-07 14:19 | 41.80644 | 3.90519 | 36958 ft | 401 kts | 193° |
| 2026-05-07 14:19 | 41.75132 | 3.89324 | 36960 ft | 401 kts | 194° |
| 2026-05-07 14:20 | 41.69603 | 3.88091 | 36954 ft | 400 kts | 194° |
| 2026-05-07 14:20 | 41.64113 | 3.86845 | 36954 ft | 402 kts | 194° |
| 2026-05-07 14:21 | 41.58637 | 3.85593 | 36966 ft | 402 kts | 194° |
| 2026-05-07 14:21 | 41.53133 | 3.84330 | 36966 ft | 401 kts | 194° |
| 2026-05-07 14:21 | 41.50384 | 3.83700 | 36836 ft | 400 kts | 194° |
| 2026-05-07 14:22 | 41.47655 | 3.83076 | 36492 ft | 394 kts | 194° |
| 2026-05-07 14:22 | 41.45002 | 3.82472 | 36106 ft | 391 kts | 194° |
| 2026-05-07 14:22 | 41.42319 | 3.81859 | 35522 ft | 392 kts | 194° |
| 2026-05-07 14:22 | 41.39625 | 3.81241 | 34877 ft | 395 kts | 195° |
| 2026-05-07 14:23 | 41.36910 | 3.80617 | 34073 ft | 397 kts | 195° |
| 2026-05-07 14:23 | 41.34208 | 3.79997 | 33275 ft | 398 kts | 194° |
| 2026-05-07 14:23 | 41.31485 | 3.79374 | 32529 ft | 397 kts | 195° |
| 2026-05-07 14:23 | 41.28804 | 3.78762 | 31808 ft | 395 kts | 194° |
| 2026-05-07 14:24 | 41.26086 | 3.78144 | 31048 ft | 394 kts | 194° |
| 2026-05-07 14:24 | 41.23386 | 3.77531 | 30464 ft | 389 kts | 194° |
| 2026-05-07 14:24 | 41.20766 | 3.76940 | 30045 ft | 381 kts | 194° |
| 2026-05-07 14:24 | 41.18169 | 3.76441 | 29587 ft | 377 kts | 191° |
| 2026-05-07 14:25 | 41.15558 | 3.76275 | 29108 ft | 378 kts | 184° |
| 2026-05-07 14:25 | 41.12899 | 3.76627 | 28631 ft | 393 kts | 176° |
| 2026-05-07 14:25 | 41.10170 | 3.77361 | 28120 ft | 411 kts | 173° |
| 2026-05-07 14:25 | 41.07388 | 3.78303 | 27610 ft | 411 kts | 171° |
| 2026-05-07 14:26 | 41.04654 | 3.79320 | 27056 ft | 407 kts | 170° |
| 2026-05-07 14:26 | 41.01947 | 3.80357 | 26525 ft | 402 kts | 169° |
| 2026-05-07 14:26 | 40.99308 | 3.81368 | 26009 ft | 397 kts | 169° |
| 2026-05-07 14:26 | 40.96665 | 3.82368 | 25492 ft | 393 kts | 169° |
| 2026-05-07 14:27 | 40.94029 | 3.83351 | 24972 ft | 390 kts | 169° |
| 2026-05-07 14:27 | 40.91447 | 3.84300 | 24456 ft | 390 kts | 169° |
| 2026-05-07 14:27 | 40.88838 | 3.85250 | 23948 ft | 390 kts | 169° |
| 2026-05-07 14:27 | 40.86210 | 3.86200 | 23423 ft | 391 kts | 169° |
| 2026-05-07 14:28 | 40.83575 | 3.87148 | 22900 ft | 393 kts | 169° |
| 2026-05-07 14:28 | 40.80904 | 3.88108 | 22367 ft | 395 kts | 169° |
| 2026-05-07 14:28 | 40.78272 | 3.89053 | 21839 ft | 396 kts | 168° |
| 2026-05-07 14:28 | 40.75610 | 3.90010 | 21293 ft | 393 kts | 168° |
| 2026-05-07 14:29 | 40.73022 | 3.90939 | 20763 ft | 389 kts | 168° |
| 2026-05-07 14:29 | 40.70406 | 3.91879 | 20228 ft | 384 kts | 168° |
| 2026-05-07 14:29 | 40.67873 | 3.92788 | 19716 ft | 380 kts | 167° |
| 2026-05-07 14:29 | 40.65303 | 3.93709 | 19173 ft | 376 kts | 167° |
| 2026-05-07 14:30 | 40.62830 | 3.94594 | 18661 ft | 372 kts | 167° |
| 2026-05-07 14:30 | 40.60324 | 3.95491 | 18120 ft | 369 kts | 166° |
| 2026-05-07 14:30 | 40.57894 | 3.96360 | 17612 ft | 365 kts | 166° |
| 2026-05-07 14:30 | 40.55450 | 3.97233 | 17085 ft | 361 kts | 166° |
| 2026-05-07 14:31 | 40.53024 | 3.98099 | 16558 ft | 358 kts | 166° |
| 2026-05-07 14:31 | 40.50639 | 3.98949 | 16046 ft | 354 kts | 166° |
| 2026-05-07 14:31 | 40.48301 | 3.99781 | 15926 ft | 347 kts | 166° |
| 2026-05-07 14:31 | 40.45949 | 4.00616 | 15924 ft | 353 kts | 166° |
| 2026-05-07 14:32 | 40.43551 | 4.01466 | 15933 ft | 353 kts | 166° |
| 2026-05-07 14:32 | 40.41184 | 4.02305 | 15934 ft | 352 kts | 166° |
| 2026-05-07 14:32 | 40.38818 | 4.03144 | 15927 ft | 353 kts | 166° |
| 2026-05-07 14:32 | 40.36458 | 4.03981 | 15942 ft | 353 kts | 166° |
| 2026-05-07 14:33 | 40.34105 | 4.04816 | 15930 ft | 353 kts | 166° |
| 2026-05-07 14:33 | 40.31737 | 4.05656 | 15921 ft | 352 kts | 166° |
| 2026-05-07 14:33 | 40.29369 | 4.06493 | 15940 ft | 354 kts | 166° |
| 2026-05-07 14:33 | 40.26987 | 4.07336 | 15939 ft | 353 kts | 166° |
| 2026-05-07 14:34 | 40.24633 | 4.08169 | 15923 ft | 352 kts | 166° |
| 2026-05-07 14:34 | 40.22248 | 4.09011 | 15925 ft | 352 kts | 166° |
| 2026-05-07 14:34 | 40.19883 | 4.09845 | 15553 ft | 350 kts | 166° |
| 2026-05-07 14:34 | 40.17572 | 4.10660 | 15075 ft | 347 kts | 166° |
| 2026-05-07 14:35 | 40.15232 | 4.11484 | 14566 ft | 344 kts | 165° |
| 2026-05-07 14:35 | 40.12940 | 4.12289 | 14066 ft | 341 kts | 165° |
| 2026-05-07 14:35 | 40.10659 | 4.13089 | 13570 ft | 338 kts | 165° |
| 2026-05-07 14:35 | 40.08379 | 4.13674 | 13098 ft | 338 kts | 178° |
| 2026-05-07 14:36 | 40.06105 | 4.13099 | 12726 ft | 338 kts | 204° |
| 2026-05-07 14:36 | 40.04260 | 4.11232 | 12417 ft | 341 kts | 230° |
| 2026-05-07 14:36 | 40.03164 | 4.08487 | 11910 ft | 342 kts | 251° |
| 2026-05-07 14:36 | 40.02471 | 4.05546 | 11451 ft | 338 kts | 250° |
| 2026-05-07 14:37 | 40.01598 | 4.02736 | 10873 ft | 336 kts | 240° |
| 2026-05-07 14:37 | 39.98747 | 3.98200 | 10322 ft | 314 kts | 216° |
| 2026-05-07 14:37 | 39.96941 | 3.96723 | 10211 ft | 298 kts | 205° |
| 2026-05-07 14:38 | 39.95083 | 3.95665 | 10100 ft | 285 kts | 199° |
| 2026-05-07 14:38 | 39.93252 | 3.94849 | 9930 ft | 276 kts | 195° |
| 2026-05-07 14:38 | 39.91414 | 3.94172 | 9563 ft | 275 kts | 193° |
| 2026-05-07 14:38 | 39.89552 | 3.93651 | 9251 ft | 271 kts | 187° |
| 2026-05-07 14:39 | 39.87676 | 3.93400 | 8834 ft | 272 kts | 181° |
| 2026-05-07 14:39 | 39.85760 | 3.93397 | 8418 ft | 273 kts | 176° |
| 2026-05-07 14:39 | 39.83877 | 3.93588 | 8065 ft | 271 kts | 172° |
| 2026-05-07 14:39 | 39.82032 | 3.93960 | 7729 ft | 268 kts | 167° |
| 2026-05-07 14:40 | 39.80246 | 3.94548 | 7396 ft | 266 kts | 161° |
| 2026-05-07 14:40 | 39.78505 | 3.95333 | 7061 ft | 263 kts | 156° |
| 2026-05-07 14:40 | 39.76840 | 3.96273 | 6733 ft | 261 kts | 152° |
| 2026-05-07 14:40 | 39.75236 | 3.97404 | 6409 ft | 258 kts | 146° |
| 2026-05-07 14:41 | 39.73757 | 3.98687 | 6101 ft | 255 kts | 142° |
| 2026-05-07 14:41 | 39.72385 | 4.00082 | 5781 ft | 252 kts | 137° |
| 2026-05-07 14:41 | 39.71089 | 4.01621 | 5462 ft | 250 kts | 133° |
| 2026-05-07 14:41 | 39.69919 | 4.03275 | 5146 ft | 247 kts | 128° |
| 2026-05-07 14:42 | 39.68869 | 4.05019 | 4836 ft | 245 kts | 124° |
| 2026-05-07 14:42 | 39.67926 | 4.06847 | 4528 ft | 242 kts | 120° |
| 2026-05-07 14:42 | 39.67174 | 4.08770 | 4254 ft | 237 kts | 104° |
| 2026-05-07 14:42 | 39.67056 | 4.10863 | 4068 ft | 230 kts | 81° |
| 2026-05-07 14:43 | 39.67577 | 4.12765 | 3917 ft | 223 kts | 64° |
| 2026-05-07 14:43 | 39.68312 | 4.14528 | 3644 ft | 221 kts | 63° |
| 2026-05-07 14:43 | 39.69030 | 4.16261 | 3398 ft | 217 kts | 63° |
| 2026-05-07 14:43 | 39.69833 | 4.17884 | 3206 ft | 211 kts | 50° |
| 2026-05-07 14:44 | 39.71050 | 4.18883 | 3077 ft | 210 kts | 20° |
| 2026-05-07 14:44 | 39.72507 | 4.19127 | 2786 ft | 213 kts | 7° |
| 2026-05-07 14:44 | 39.73969 | 4.19294 | 2522 ft | 208 kts | 12° |
| 2026-05-07 14:44 | 39.75389 | 4.19635 | 2214 ft | 205 kts | 15° |
| 2026-05-07 14:45 | 39.76779 | 4.19927 | 1953 ft | 202 kts | 12° |
| 2026-05-07 14:45 | 39.78148 | 4.20190 | 1659 ft | 194 kts | 14° |
| 2026-05-07 14:45 | 39.79444 | 4.20475 | 1421 ft | 178 kts | 13° |
| 2026-05-07 14:45 | 39.80611 | 4.20708 | 1169 ft | 165 kts | 11° |
| 2026-05-07 14:46 | 39.81700 | 4.20927 | 1011 ft | 154 kts | 14° |
| 2026-05-07 14:46 | 39.82778 | 4.21146 | 775 ft | 156 kts | 11° |
| 2026-05-07 14:46 | 39.83803 | 4.21352 | 539 ft | 147 kts | 12° |
| 2026-05-07 14:46 | 39.84817 | 4.21562 | 381 ft | 147 kts | 12° |
| 2026-05-07 14:47 | 39.85804 | 4.21762 | 297 ft | 136 kts | 12° |
| 2026-05-07 14:47 | 39.86750 | 4.21970 | 504 ft | 150 kts | 11° |
| 2026-05-07 14:47 | 39.87798 | 4.22174 | 1264 ft | 156 kts | 12° |
| 2026-05-07 14:47 | 39.88829 | 4.22544 | 2027 ft | 160 kts | 33° |
| 2026-05-07 14:48 | 39.89605 | 4.23520 | 2846 ft | 159 kts | 63° |
| 2026-05-07 14:48 | 39.89842 | 4.24961 | 3391 ft | 182 kts | 95° |
| 2026-05-07 14:48 | 39.89488 | 4.26671 | 3493 ft | 209 kts | 109° |
| 2026-05-07 14:48 | 39.88721 | 4.28282 | 3663 ft | 217 kts | 137° |
| 2026-05-07 14:49 | 39.87277 | 4.29014 | 3884 ft | 233 kts | 173° |
| 2026-05-07 14:49 | 39.85637 | 4.28941 | 3956 ft | 237 kts | 181° |
| 2026-05-07 14:49 | 39.84017 | 4.28533 | 3954 ft | 238 kts | 194° |
| 2026-05-07 14:49 | 39.82433 | 4.27808 | 3775 ft | 242 kts | 197° |
| 2026-05-07 14:50 | 39.80872 | 4.27039 | 3528 ft | 240 kts | 197° |
| 2026-05-07 14:50 | 39.79300 | 4.26278 | 3280 ft | 238 kts | 195° |
| 2026-05-07 14:50 | 39.77737 | 4.25643 | 2989 ft | 238 kts | 193° |
| 2026-05-07 14:50 | 39.76141 | 4.25043 | 2637 ft | 240 kts | 192° |
| 2026-05-07 14:51 | 39.74548 | 4.24440 | 2265 ft | 237 kts | 195° |
| 2026-05-07 14:51 | 39.73173 | 4.23290 | 1983 ft | 235 kts | 231° |
| 2026-05-07 14:51 | 39.72666 | 4.21415 | 1925 ft | 218 kts | 274° |
| 2026-05-07 14:51 | 39.73172 | 4.19665 | 1955 ft | 198 kts | 314° |
| 2026-05-07 14:52 | 39.74282 | 4.18866 | 1934 ft | 178 kts | 2° |
| 2026-05-07 14:52 | 39.75435 | 4.19108 | 1946 ft | 165 kts | 23° |
| 2026-05-07 14:52 | 39.76530 | 4.19607 | 1958 ft | 166 kts | 23° |
| 2026-05-07 14:52 | 39.77651 | 4.20065 | 1769 ft | 169 kts | 19° |
| 2026-05-07 14:53 | 39.78771 | 4.20352 | 1543 ft | 158 kts | 13° |
| 2026-05-07 14:53 | 39.79823 | 4.20530 | 1370 ft | 150 kts | 11° |
| 2026-05-07 14:53 | 39.80844 | 4.20742 | 1120 ft | 149 kts | 14° |
| 2026-05-07 14:53 | 39.81873 | 4.20963 | 955 ft | 148 kts | 12° |
| 2026-05-07 14:54 | 39.82874 | 4.21171 | 751 ft | 145 kts | 12° |
| 2026-05-07 14:54 | 39.83861 | 4.21368 | 561 ft | 142 kts | 11° |
| 2026-05-07 14:54 | 39.84843 | 4.21573 | 383 ft | 141 kts | 11° |
| 2026-05-07 14:54 | 39.85797 | 4.21764 | 293 ft | 133 kts | 11° |
| 2026-05-07 14:55 | 39.86445 | 4.21898 | 298 ft | 54 kts | 9° |
| 2026-05-07 14:55 | 39.86673 | 4.21951 | 298 ft | 26 kts | 15° |
| 2026-05-07 14:55 | 39.86840 | 4.22053 | 297 ft | 27 kts | 36° |
| 2026-05-07 14:55 | 39.86938 | 4.22187 | 295 ft | 12 kts | 84° |
| 2026-05-07 14:56 | 39.86926 | 4.22315 | 293 ft | 15 kts | 97° |
| 2026-05-07 14:56 | 39.86855 | 4.22397 | 287 ft | 17 kts | 189° |
| 2026-05-07 14:56 | 39.86727 | 4.22370 | 286 ft | 18 kts | 189° |
| 2026-05-07 14:56 | 39.86598 | 4.22343 | 285 ft | 18 kts | 189° |
| 2026-05-07 14:57 | 39.86499 | 4.22322 | 285 ft | 5 kts | 187° |
| 2026-05-07 14:57 | 39.86478 | 4.22352 | 285 ft | 5 kts | 103° |
| 2026-05-07 14:57 | 39.86472 | 4.22398 | 285 ft | 0 kts | 100° |
| 2026-05-07 14:57 | 39.86472 | 4.22400 | 285 ft | 0 kts | 99° |